createdAt,value
2019-03-11T00:00:55.004Z,13.97
2019-03-11T00:15:51.132Z,13.90
2019-03-11T00:30:52.743Z,13.76
2019-03-11T00:45:51.003Z,13.61
2019-03-11T01:00:51.007Z,13.41
2019-03-11T01:15:55.697Z,13.32
2019-03-11T01:30:51.165Z,13.18
2019-03-11T01:45:51.160Z,13.12
2019-03-11T02:00:51.162Z,13.19
2019-03-11T02:15:52.529Z,13.22
2019-03-11T02:30:51.557Z,13.22
2019-03-11T02:45:51.545Z,13.19
2019-03-11T03:00:51.792Z,13.10
2019-03-11T03:15:50.619Z,12.98
2019-03-11T03:30:51.348Z,12.91
2019-03-11T03:45:50.524Z,12.58
2019-03-11T04:00:50.525Z,12.15
2019-03-11T04:15:51.029Z,11.85
2019-03-11T04:30:51.002Z,11.58
2019-03-11T04:45:55.235Z,11.40
2019-03-11T05:00:50.642Z,11.53
2019-03-11T05:15:51.072Z,11.66
2019-03-11T05:30:51.644Z,11.80
2019-03-11T05:45:51.517Z,12.85
2019-03-11T06:00:50.682Z,13.21
2019-03-11T06:15:50.905Z,13.54
2019-03-11T06:30:52.090Z,14.78
2019-03-11T06:45:52.165Z,16.69
2019-03-11T07:00:51.270Z,17.82
2019-03-11T07:15:51.689Z,19.19
2019-03-11T07:45:51.435Z,21.84
2019-03-11T08:00:54.163Z,21.87
2019-03-11T08:15:52.962Z,21.87
2019-03-11T08:30:54.668Z,22.29
2019-03-11T08:45:52.405Z,21.34
2019-03-11T09:00:52.229Z,21.21
2019-03-11T09:15:54.631Z,21.74
2019-03-11T09:30:56.947Z,24.22
2019-03-11T09:45:53.235Z,25.90
2019-03-11T10:00:58.984Z,23.59
2019-03-11T10:30:55.414Z,20.44
2019-03-11T10:45:57.760Z,19.67
2019-03-11T11:00:53.105Z,19.00
2019-03-11T11:30:51.273Z,19.80
2019-03-11T11:45:51.300Z,20.24
2019-03-11T12:00:51.320Z,19.90
2019-03-11T12:15:51.889Z,20.52
2019-03-11T12:30:51.685Z,21.00
2019-03-11T12:45:51.562Z,21.01
2019-03-11T13:00:51.517Z,20.55
2019-03-11T13:15:52.883Z,19.71
2019-03-11T13:30:50.773Z,19.53
2019-03-11T14:30:51.097Z,17.34
2019-03-11T14:45:51.428Z,16.85
2019-03-11T15:00:50.872Z,16.07
2019-03-11T15:15:51.797Z,15.32
2019-03-11T15:30:53.262Z,14.59
2019-03-11T15:45:51.255Z,13.80
2019-03-11T16:00:51.164Z,13.03
2019-03-11T16:15:51.568Z,12.42
2019-03-11T16:30:51.609Z,11.90
2019-03-11T16:45:53.705Z,11.50
2019-03-11T17:00:51.444Z,11.20
2019-03-11T17:15:50.975Z,10.96
2019-03-11T17:30:52.408Z,10.65
2019-03-11T17:45:55.573Z,10.30
2019-03-11T18:00:55.720Z,9.86
2019-03-11T18:15:53.406Z,9.62
2019-03-11T18:30:51.819Z,9.47
2019-03-11T18:45:51.029Z,9.28
2019-03-11T19:00:51.045Z,9.14
2019-03-11T19:15:51.443Z,8.98
2019-03-11T19:30:52.942Z,8.85
2019-03-11T19:45:51.967Z,8.78
2019-03-11T20:00:52.237Z,8.54
2019-03-11T20:15:53.871Z,8.32
2019-03-11T20:30:51.681Z,8.31
2019-03-11T20:45:51.539Z,8.15
2019-03-11T21:00:53.477Z,8.02
2019-03-11T21:15:51.309Z,8.01
2019-03-11T21:30:51.196Z,7.84
2019-03-11T21:45:51.170Z,7.68
2019-03-11T22:00:51.473Z,7.60
2019-03-11T22:15:51.002Z,7.35
2019-03-11T22:30:50.980Z,7.21
2019-03-11T22:45:50.903Z,7.13
2019-03-11T23:00:59.624Z,7.06
2019-03-11T23:15:51.821Z,7.01
2019-03-11T23:30:51.183Z,6.95
2019-03-11T23:45:51.244Z,6.86
